createdAt,value
2018-08-06T00:00:14.860Z,98363.47
2018-08-06T00:01:17.720Z,98365.48
2018-08-06T00:02:23.529Z,98365.53
2018-08-06T00:03:26.626Z,98366.45
2018-08-06T00:04:30.119Z,98364.77
2018-08-06T00:05:33.311Z,98368.44
2018-08-06T00:06:36.119Z,98363.48
2018-08-06T00:07:40.487Z,98361.13
2018-08-06T00:08:43.300Z,98359.61
2018-08-06T00:09:46.146Z,98359.69
2018-08-06T00:10:48.959Z,98364.34
2018-08-06T00:11:53.455Z,98356.45
2018-08-06T00:12:56.291Z,98358.45
2018-08-06T00:13:59.116Z,98355.59
2018-08-06T00:15:01.960Z,98365.09
2018-08-06T00:16:05.579Z,98369.70
2018-08-06T00:17:08.698Z,98363.40
2018-08-06T00:18:11.788Z,98363.02
2018-08-06T00:19:14.587Z,98366.66
2018-08-06T00:20:17.504Z,98361.64
2018-08-06T00:21:20.351Z,98357.93
2018-08-06T00:22:23.365Z,98362.91
2018-08-06T00:23:26.586Z,98361.27
2018-08-06T00:24:30.277Z,98358.25
2018-08-06T00:25:33.317Z,98355.52
2018-08-06T00:26:36.151Z,98356.88
2018-08-06T00:27:39.039Z,98354.03
2018-08-06T00:28:41.841Z,98353.23
2018-08-06T00:29:44.658Z,98353.76
2018-08-06T00:30:47.795Z,98354.47
2018-08-06T00:31:50.620Z,98347.17
2018-08-06T00:32:53.454Z,98352.59
2018-08-06T00:33:56.280Z,98351.62
2018-08-06T00:34:59.136Z,98347.52
2018-08-06T00:36:01.967Z,98350.03
2018-08-06T00:37:05.123Z,98348.48
2018-08-06T00:38:07.924Z,98347.37
2018-08-06T00:39:12.087Z,98352.48
2018-08-06T00:40:15.018Z,98350.55
2018-08-06T00:41:17.838Z,98343.05
2018-08-06T00:42:20.728Z,98347.78
2018-08-06T00:43:23.849Z,98345.71
2018-08-06T00:44:26.681Z,98350.20
2018-08-06T00:45:29.648Z,98350.66
2018-08-06T00:46:32.458Z,98343.65
2018-08-06T00:47:35.299Z,98349.55
2018-08-06T00:48:38.177Z,98350.97
2018-08-06T00:49:41.264Z,98350.34
2018-08-06T00:50:44.633Z,98345.48
2018-08-06T00:51:47.484Z,98346.31
2018-08-06T00:52:51.572Z,98339.99
2018-08-06T00:53:54.407Z,98344.66
2018-08-06T00:54:57.235Z,98340.59
2018-08-06T00:56:00.059Z,98344.17
2018-08-06T00:57:03.630Z,98343.66
2018-08-06T00:58:06.492Z,98349.70
2018-08-06T00:59:09.328Z,98351.40
2018-08-06T01:00:13.784Z,98347.57
2018-08-06T01:01:17.279Z,98344.23
2018-08-06T01:02:20.436Z,98346.30
2018-08-06T01:03:23.278Z,98338.16
2018-08-06T01:04:26.123Z,98340.63
2018-08-06T01:05:28.943Z,98338.36
2018-08-06T01:06:31.754Z,98337.76
2018-08-06T01:07:34.607Z,98339.81
2018-08-06T01:08:37.774Z,98337.91
2018-08-06T01:09:40.585Z,98336.94
2018-08-06T01:10:43.405Z,98336.19
2018-08-06T01:11:46.222Z,98332.80
2018-08-06T01:12:49.110Z,98336.48
2018-08-06T01:13:51.945Z,98323.59
2018-08-06T01:14:56.072Z,98328.53
2018-08-06T01:15:59.052Z,98324.77
2018-08-06T01:17:02.363Z,98327.44
2018-08-06T01:18:05.203Z,98319.54
2018-08-06T01:19:08.053Z,98324.90
2018-08-06T01:20:10.889Z,98324.74
2018-08-06T01:21:13.998Z,98318.34
2018-08-06T01:22:16.849Z,98317.73
2018-08-06T01:23:19.743Z,98321.05
2018-08-06T01:24:22.553Z,98323.19
2018-08-06T01:25:25.349Z,98315.25
2018-08-06T01:26:28.212Z,98314.70
2018-08-06T01:27:31.337Z,98311.38
2018-08-06T01:28:34.150Z,98313.95
2018-08-06T01:29:36.961Z,98318.34
2018-08-06T01:30:39.783Z,98319.44
2018-08-06T01:31:42.631Z,98320.47
2018-08-06T01:32:45.493Z,98317.38
2018-08-06T01:33:48.642Z,98312.25
2018-08-06T01:34:51.499Z,98311.70
2018-08-06T01:35:54.316Z,98316.80
2018-08-06T01:36:57.141Z,98312.36
2018-08-06T01:37:59.974Z,98308.37
2018-08-06T01:39:03.890Z,98311.38
2018-08-06T01:40:07.029Z,98309.51
2018-08-06T01:41:09.867Z,98308.45
2018-08-06T01:42:12.686Z,98303.05
2018-08-06T01:43:15.518Z,98308.40
2018-08-06T01:44:18.395Z,98304.65
2018-08-06T01:45:21.216Z,98311.69
2018-08-06T01:46:24.318Z,98309.13
2018-08-06T01:47:27.161Z,98304.48
2018-08-06T01:48:29.990Z,98307.45
2018-08-06T01:49:32.832Z,98304.75
2018-08-06T01:50:35.653Z,98305.92
2018-08-06T01:51:38.507Z,98304.70
2018-08-06T01:52:43.048Z,98306.04
2018-08-06T01:53:45.911Z,98304.58
2018-08-06T01:54:48.806Z,98300.64
2018-08-06T01:55:51.648Z,98306.17
2018-08-06T01:56:55.570Z,98302.26
2018-08-06T01:57:58.431Z,98302.95
2018-08-06T01:59:01.553Z,98302.08
2018-08-06T02:00:06.825Z,98303.36
2018-08-06T02:01:09.646Z,98302.89
2018-08-06T02:02:12.453Z,98298.97
2018-08-06T02:03:15.312Z,98297.56
2018-08-06T02:04:18.132Z,98304.73
2018-08-06T02:05:21.257Z,98298.25
2018-08-06T02:06:24.083Z,98300.12
2018-08-06T02:07:26.903Z,98292.05
2018-08-06T02:08:29.705Z,98295.31
2018-08-06T02:09:32.515Z,98298.94
2018-08-06T02:10:35.343Z,98289.52
2018-08-06T02:11:38.465Z,98283.34
2018-08-06T02:12:41.480Z,98289.41
2018-08-06T02:13:44.284Z,98289.56
2018-08-06T02:14:47.117Z,98291.39
2018-08-06T02:15:49.993Z,98289.45
2018-08-06T02:16:52.825Z,98293.61
2018-08-06T02:17:55.914Z,98290.34
2018-08-06T02:18:58.722Z,98286.23
2018-08-06T02:20:01.566Z,98286.11
2018-08-06T02:21:04.377Z,98285.64
2018-08-06T02:22:07.248Z,98278.95
2018-08-06T02:23:10.051Z,98275.14
2018-08-06T02:24:13.206Z,98277.38
2018-08-06T02:25:16.246Z,98277.17
2018-08-06T02:26:19.047Z,98280.97
2018-08-06T02:27:23.042Z,98277.98
2018-08-06T02:28:25.926Z,98270.91
2018-08-06T02:29:28.750Z,98275.08
2018-08-06T02:30:31.592Z,98277.53
2018-08-06T02:31:34.492Z,98272.63
2018-08-06T02:32:38.228Z,98266.00
2018-08-06T02:33:41.093Z,98269.27
2018-08-06T02:34:43.918Z,98274.89
2018-08-06T02:35:46.735Z,98276.45
2018-08-06T02:36:50.518Z,98270.94
2018-08-06T02:37:53.364Z,98275.79
2018-08-06T02:38:56.181Z,98275.31
2018-08-06T02:39:59.002Z,98268.81
2018-08-06T02:41:01.819Z,98271.08
2018-08-06T02:42:04.637Z,98274.62
2018-08-06T02:43:08.330Z,98271.91
2018-08-06T02:44:12.550Z,98275.95
2018-08-06T02:45:15.425Z,98273.05
2018-08-06T02:46:18.265Z,98271.25
2018-08-06T02:47:21.108Z,98271.34
2018-08-06T02:48:23.938Z,98271.30
2018-08-06T02:49:27.103Z,98265.34
2018-08-06T02:50:29.945Z,98259.77
2018-08-06T02:51:32.814Z,98256.53
2018-08-06T02:52:35.689Z,98257.89
2018-08-06T02:53:38.537Z,98253.63
2018-08-06T02:54:41.419Z,98258.07
2018-08-06T02:55:44.534Z,98259.38
2018-08-06T02:56:47.407Z,98258.38
2018-08-06T02:57:50.243Z,98260.27
2018-08-06T02:58:53.029Z,98261.34
2018-08-06T02:59:56.150Z,98255.21
2018-08-06T03:00:58.958Z,98257.89
2018-08-06T03:02:02.121Z,98256.36
2018-08-06T03:03:04.945Z,98255.78
2018-08-06T03:04:07.850Z,98253.72
2018-08-06T03:05:11.853Z,98253.56
2018-08-06T03:06:14.757Z,98246.69
2018-08-06T03:07:17.591Z,98250.52
2018-08-06T03:08:20.695Z,98252.03
2018-08-06T03:09:23.549Z,98252.06
2018-08-06T03:10:26.395Z,98251.12
2018-08-06T03:11:29.221Z,98246.45
2018-08-06T03:12:32.097Z,98247.67
2018-08-06T03:13:34.970Z,98243.28
2018-08-06T03:14:38.070Z,98246.17
2018-08-06T03:15:40.943Z,98242.47
2018-08-06T03:16:43.774Z,98243.51
2018-08-06T03:17:46.673Z,98242.19
2018-08-06T03:18:49.508Z,98246.02
2018-08-06T03:19:52.373Z,98242.12
2018-08-06T03:20:55.479Z,98235.95
2018-08-06T03:21:58.355Z,98230.96
2018-08-06T03:23:01.233Z,98230.21
2018-08-06T03:24:04.133Z,98226.87
2018-08-06T03:25:07.004Z,98226.39
2018-08-06T03:26:10.392Z,98226.25
2018-08-06T03:27:13.542Z,98232.22
2018-08-06T03:28:16.383Z,98230.89
2018-08-06T03:29:19.244Z,98225.09
2018-08-06T03:30:22.823Z,98219.44
2018-08-06T03:31:25.683Z,98218.08
2018-08-06T03:32:28.526Z,98221.47
2018-08-06T03:33:31.808Z,98220.34
2018-08-06T03:34:34.654Z,98228.83
2018-08-06T03:35:37.468Z,98218.75
2018-08-06T03:50:28.528Z,98216.72
2018-08-06T03:51:31.499Z,98214.53
2018-08-06T03:52:34.581Z,98214.87
2018-08-06T03:53:37.414Z,98222.41
2018-08-06T03:54:40.275Z,98220.73
2018-08-06T03:55:43.647Z,98217.38
2018-08-06T03:56:46.479Z,98223.11
2018-08-06T03:57:49.667Z,98220.33
2018-08-06T03:58:53.224Z,98215.55
2018-08-06T03:59:56.363Z,98212.69
2018-08-06T04:00:59.299Z,98216.16
2018-08-06T04:02:02.235Z,98209.50
2018-08-06T04:03:05.057Z,98219.28
2018-08-06T04:04:07.867Z,98213.27
2018-08-06T04:05:12.642Z,98213.30
2018-08-06T04:06:15.582Z,98214.64
2018-08-06T04:07:18.729Z,98211.33
2018-08-06T04:08:21.535Z,98213.03
2018-08-06T04:09:24.338Z,98212.02
2018-08-06T04:10:27.159Z,98212.02
2018-08-06T04:11:30.785Z,98215.91
2018-08-06T04:12:33.619Z,98216.28
2018-08-06T04:13:36.447Z,98222.28
2018-08-06T04:14:39.307Z,98215.53
2018-08-06T04:15:42.131Z,98220.41
2018-08-06T04:16:45.277Z,98217.52
2018-08-06T04:17:48.117Z,98220.03
2018-08-06T04:18:51.229Z,98217.91
2018-08-06T04:19:54.051Z,98212.23
2018-08-06T04:20:56.895Z,98221.19
2018-08-06T04:21:59.734Z,98216.30
2018-08-06T04:23:02.573Z,98212.96
2018-08-06T04:24:05.430Z,98219.73
2018-08-06T04:25:08.710Z,98219.00
2018-08-06T04:26:11.522Z,98220.18
2018-08-06T04:27:14.332Z,98218.66
2018-08-06T04:28:17.170Z,98220.28
2018-08-06T04:29:19.989Z,98221.19
2018-08-06T04:30:22.872Z,98220.27
2018-08-06T04:31:26.026Z,98223.30
2018-08-06T04:32:28.862Z,98220.47
2018-08-06T04:33:31.810Z,98216.13
2018-08-06T04:34:34.684Z,98216.16
2018-08-06T04:35:37.519Z,98224.49
2018-08-06T04:36:40.659Z,98221.19
2018-08-06T04:37:44.255Z,98223.87
2018-08-06T04:38:47.151Z,98219.57
2018-08-06T04:39:50.033Z,98212.94
2018-08-06T04:40:52.908Z,98217.09
2018-08-06T04:41:55.753Z,98218.88
2018-08-06T04:42:58.901Z,98212.56
2018-08-06T04:44:01.752Z,98217.58
2018-08-06T04:45:04.653Z,98212.63
2018-08-06T04:46:07.522Z,98209.79
2018-08-06T04:47:10.398Z,98212.95
2018-08-06T04:48:13.253Z,98217.45
2018-08-06T04:49:16.387Z,98216.32
2018-08-06T04:50:19.245Z,98211.64
2018-08-06T04:51:22.724Z,98214.44
2018-08-06T04:52:25.638Z,98213.62
2018-08-06T04:53:28.505Z,98210.86
2018-08-06T04:54:31.343Z,98211.58
2018-08-06T04:55:34.763Z,98220.75
2018-08-06T04:56:37.599Z,98214.08
2018-08-06T04:57:42.395Z,98211.39
2018-08-06T05:04:16.345Z,98214.47
2018-08-06T05:05:20.805Z,98215.09
2018-08-06T05:06:23.636Z,98226.84
2018-08-06T05:07:27.279Z,98222.83
2018-08-06T05:08:31.086Z,98219.69
2018-08-06T05:09:33.903Z,98218.47
2018-08-06T05:10:38.666Z,98221.18
2018-08-06T05:11:41.769Z,98218.11
2018-08-06T05:12:45.878Z,98221.76
2018-08-06T05:13:48.688Z,98222.66
2018-08-06T05:14:52.124Z,98224.08
2018-08-06T05:15:54.991Z,98223.83
2018-08-06T05:16:59.438Z,98227.42
2018-08-06T05:18:03.449Z,98224.89
2018-08-06T05:19:06.264Z,98223.88
2018-08-06T05:20:09.115Z,98224.70
2018-08-06T05:21:11.977Z,98220.13
2018-08-06T05:22:14.783Z,98218.78
2018-08-06T05:23:18.082Z,98221.44
2018-08-06T05:24:20.916Z,98220.48
2018-08-06T05:25:23.776Z,98225.01
2018-08-06T05:26:27.700Z,98222.09
2018-08-06T05:27:30.553Z,98212.83
2018-08-06T05:28:33.433Z,98217.84
2018-08-06T05:29:36.740Z,98213.90
2018-08-06T05:30:39.589Z,98219.84
2018-08-06T05:31:42.441Z,98210.84
2018-08-06T05:32:45.291Z,98220.39
2018-08-06T05:33:48.261Z,98216.66
2018-08-06T05:34:51.131Z,98223.70
2018-08-06T05:35:54.385Z,98220.38
2018-08-06T05:36:57.294Z,98220.97
2018-08-06T05:38:00.205Z,98220.38
2018-08-06T05:39:03.744Z,98219.44
2018-08-06T05:40:09.657Z,98216.53
2018-08-06T05:41:12.583Z,98223.04
2018-08-06T05:42:15.958Z,98218.37
2018-08-06T05:43:18.818Z,98213.84
2018-08-06T05:44:22.211Z,98221.00
2018-08-06T05:45:26.052Z,98219.78
2018-08-06T05:46:28.938Z,98226.73
2018-08-06T05:47:31.797Z,98224.13
2018-08-06T05:48:35.035Z,98219.22
2018-08-06T05:49:37.936Z,98222.91
2018-08-06T05:50:41.066Z,98225.11
2018-08-06T05:51:44.037Z,98222.13
2018-08-06T05:52:47.079Z,98220.59
2018-08-06T05:53:50.041Z,98226.14
2018-08-06T05:54:54.513Z,98218.47
2018-08-06T05:55:57.405Z,98221.23
2018-08-06T05:57:00.305Z,98222.20
2018-08-06T05:58:04.130Z,98231.20
2018-08-06T05:59:06.978Z,98231.55
2018-08-06T06:00:09.849Z,98229.45
2018-08-06T06:01:12.992Z,98230.73
2018-08-06T06:02:15.875Z,98227.01
2018-08-06T06:03:18.774Z,98230.20
2018-08-06T06:04:21.732Z,98235.39
2018-08-06T06:05:24.621Z,98231.52
2018-08-06T06:06:27.507Z,98236.22
2018-08-06T06:07:31.098Z,98235.84
2018-08-06T06:08:33.963Z,98237.09
2018-08-06T06:09:36.844Z,98231.33
2018-08-06T06:10:39.702Z,98231.44
2018-08-06T06:11:42.568Z,98241.52
2018-08-06T06:12:45.443Z,98234.38
2018-08-06T06:13:48.617Z,98239.13
2018-08-06T06:14:51.537Z,98236.32
2018-08-06T06:15:54.399Z,98228.83
2018-08-06T06:16:58.507Z,98229.93
2018-08-06T06:18:05.113Z,98226.84
2018-08-06T06:19:09.652Z,98226.01
2018-08-06T06:20:13.852Z,98226.22
2018-08-06T06:21:16.710Z,98225.86
2018-08-06T06:22:19.608Z,98228.68
2018-08-06T06:23:22.785Z,98227.12
2018-08-06T06:24:25.645Z,98225.70
2018-08-06T06:25:28.517Z,98226.16
2018-08-06T06:26:31.901Z,98229.42
2018-08-06T06:27:34.785Z,98219.36
2018-08-06T06:28:37.658Z,98219.86
2018-08-06T06:29:40.535Z,98220.14
2018-08-06T06:30:44.090Z,98223.89
2018-08-06T06:31:46.981Z,98224.81
2018-08-06T06:32:50.117Z,98226.95
2018-08-06T06:33:53.194Z,98215.84
2018-08-06T06:34:56.737Z,98223.41
2018-08-06T06:36:00.728Z,98224.43
2018-08-06T06:37:04.146Z,98221.83
2018-08-06T06:38:07.595Z,98223.66
2018-08-06T06:39:13.598Z,98232.36
2018-08-06T06:40:16.821Z,98217.73
2018-08-06T06:41:19.758Z,98223.27
2018-08-06T06:42:22.585Z,98215.03
2018-08-06T06:43:25.493Z,98222.36
2018-08-06T06:44:28.360Z,98220.48
2018-08-06T06:45:32.121Z,98221.67
2018-08-06T06:46:34.953Z,98213.83
2018-08-06T06:47:38.627Z,98214.28
2018-08-06T06:48:41.491Z,98218.39
2018-08-06T06:49:44.391Z,98221.16
2018-08-06T06:50:47.568Z,98221.41
2018-08-06T06:51:51.324Z,98220.02
2018-08-06T06:52:54.893Z,98217.06
2018-08-06T06:53:57.886Z,98217.20
2018-08-06T06:55:00.829Z,98213.02
2018-08-06T06:56:03.674Z,98213.08
2018-08-06T06:57:07.244Z,98215.65
2018-08-06T06:58:11.114Z,98218.02
2018-08-06T06:59:15.530Z,98206.75
2018-08-06T07:00:18.716Z,98213.05
2018-08-06T07:01:23.427Z,98213.56
2018-08-06T07:02:26.618Z,98212.99
2018-08-06T07:03:29.815Z,98204.52
2018-08-06T07:04:32.651Z,98209.69
2018-08-06T07:05:35.491Z,98211.08
2018-08-06T07:06:41.068Z,98208.72
2018-08-06T07:07:43.922Z,98208.89
2018-08-06T07:08:46.788Z,98213.45
2018-08-06T07:09:50.058Z,98211.48
2018-08-06T07:10:53.013Z,98204.67
2018-08-06T07:11:55.857Z,98203.83
2018-08-06T07:12:59.741Z,98205.13
2018-08-06T07:14:02.605Z,98207.19
2018-08-06T07:15:05.841Z,98212.38
2018-08-06T07:16:09.967Z,98212.08
2018-08-06T07:17:12.818Z,98205.66
2018-08-06T07:18:15.816Z,98206.48
2018-08-06T07:19:18.842Z,98202.28
2018-08-06T07:20:22.318Z,98203.88
2018-08-06T07:21:25.202Z,98204.48
2018-08-06T07:22:28.390Z,98204.41
2018-08-06T07:23:31.245Z,98200.13
2018-08-06T07:24:35.510Z,98205.42
2018-08-06T07:25:41.975Z,98196.01
2018-08-06T07:26:44.829Z,98198.52
2018-08-06T07:27:47.678Z,98207.98
2018-08-06T07:28:51.903Z,98201.84
2018-08-06T07:29:55.551Z,98193.03
2018-08-06T07:31:00.968Z,98185.61
2018-08-06T07:32:04.552Z,98187.02
2018-08-06T07:33:07.426Z,98189.67
2018-08-06T07:34:10.806Z,98180.34
2018-08-06T07:35:14.585Z,98182.42
2018-08-06T07:36:17.476Z,98179.34
2018-08-06T07:37:21.640Z,98186.11
2018-08-06T07:38:24.510Z,98182.07
2018-08-06T07:39:28.601Z,98182.88
2018-08-06T07:40:31.429Z,98176.17
2018-08-06T07:41:34.607Z,98183.56
2018-08-06T07:42:37.487Z,98176.59
2018-08-06T07:43:41.097Z,98181.16
2018-08-06T07:44:44.251Z,98179.09
2018-08-06T07:45:47.972Z,98178.67
2018-08-06T07:46:52.313Z,98179.56
2018-08-06T07:47:56.360Z,98173.46
2018-08-06T07:48:59.602Z,98174.66
2018-08-06T07:50:02.871Z,98178.39
2018-08-06T07:51:06.300Z,98177.61
2018-08-06T07:52:09.163Z,98180.48
2018-08-06T07:53:12.344Z,98171.19
2018-08-06T07:54:15.989Z,98175.40
2018-08-06T07:55:19.827Z,98171.94
2018-08-06T07:56:22.795Z,98172.00
2018-08-06T07:57:25.673Z,98179.58
2018-08-06T07:58:29.180Z,98177.86
2018-08-06T07:59:32.239Z,98171.19
2018-08-06T08:00:35.777Z,98174.95
2018-08-06T08:01:38.625Z,98169.80
2018-08-06T08:02:41.667Z,98177.34
2018-08-06T08:03:44.537Z,98172.75
2018-08-06T08:04:47.822Z,98171.66
2018-08-06T08:05:50.701Z,98176.70
2018-08-06T08:06:53.933Z,98169.08
2018-08-06T08:07:56.765Z,98167.45
2018-08-06T08:09:01.278Z,98171.17
2018-08-06T08:10:05.109Z,98160.91
2018-08-06T08:11:07.975Z,98166.70
2018-08-06T08:12:10.780Z,98168.95
2018-08-06T08:13:14.888Z,98172.16
2018-08-06T08:14:17.743Z,98172.58
2018-08-06T08:15:21.239Z,98173.60
2018-08-06T08:16:24.139Z,98168.77
2018-08-06T08:17:26.953Z,98167.61
2018-08-06T08:18:29.799Z,98167.09
2018-08-06T08:19:34.750Z,98161.72
2018-08-06T08:20:37.802Z,98169.26
2018-08-06T08:21:41.692Z,98163.76
2018-08-06T08:22:45.234Z,98168.84
2018-08-06T08:23:48.135Z,98159.34
2018-08-06T08:24:51.941Z,98164.70
2018-08-06T08:25:55.297Z,98174.99
2018-08-06T08:26:58.128Z,98157.20
2018-08-06T08:28:00.972Z,98154.75
2018-08-06T08:29:04.319Z,98150.67
2018-08-06T08:30:07.346Z,98157.69
2018-08-06T08:31:14.600Z,98162.11
2018-08-06T08:32:18.619Z,98149.69
2018-08-06T08:33:21.466Z,98150.86
2018-08-06T08:34:24.423Z,98153.44
2018-08-06T08:35:27.297Z,98152.66
2018-08-06T08:36:30.379Z,98159.86
2018-08-06T08:37:34.237Z,98157.80
2018-08-06T08:38:39.701Z,98150.30
2018-08-06T08:39:42.563Z,98152.67
2018-08-06T08:40:45.423Z,98155.73
2018-08-06T08:41:48.386Z,98154.40
2018-08-06T08:42:51.275Z,98158.22
2018-08-06T08:43:55.129Z,98152.04
2018-08-06T08:45:01.296Z,98147.39
2018-08-06T08:46:05.328Z,98146.57
2018-08-06T08:47:08.181Z,98143.55
2018-08-06T08:48:11.250Z,98138.95
2018-08-06T08:49:14.109Z,98130.43
2018-08-06T08:50:17.232Z,98138.36
2018-08-06T08:51:20.357Z,98138.45
2018-08-06T08:52:23.327Z,98138.50
2018-08-06T08:53:26.203Z,98138.95
2018-08-06T08:54:29.971Z,98136.73
2018-08-06T08:55:36.720Z,98134.50
2018-08-06T08:56:39.589Z,98132.14
2018-08-06T08:57:42.983Z,98133.67
2018-08-06T08:58:45.976Z,98134.53
2018-08-06T08:59:48.763Z,98132.05
2018-08-06T09:00:52.561Z,98132.22
2018-08-06T09:01:55.521Z,98137.48
2018-08-06T09:02:59.277Z,98135.45
2018-08-06T09:04:02.401Z,98133.57
2018-08-06T09:05:09.291Z,98137.00
2018-08-06T09:06:12.152Z,98133.36
2018-08-06T09:07:15.520Z,98135.02
2018-08-06T09:08:18.389Z,98133.06
2018-08-06T09:09:21.227Z,98137.14
2018-08-06T09:10:24.412Z,98123.45
2018-08-06T09:11:27.328Z,98126.47
2018-08-06T09:12:30.723Z,98135.20
2018-08-06T09:13:34.840Z,98128.14
2018-08-06T09:14:37.756Z,98122.42
2018-08-06T09:15:40.607Z,98123.45
2018-08-06T09:16:44.529Z,98118.75
2018-08-06T09:17:47.422Z,98113.78
2018-08-06T09:18:53.082Z,98115.83
2018-08-06T09:19:55.952Z,98111.06
2018-08-06T09:20:58.913Z,98112.69
2018-08-06T09:22:01.860Z,98106.29
2018-08-06T09:23:05.096Z,98114.08
2018-08-06T09:24:07.918Z,98109.71
2018-08-06T09:25:11.551Z,98106.19
2018-08-06T09:26:14.385Z,98098.55
2018-08-06T09:27:17.392Z,98102.75
2018-08-06T09:28:20.534Z,98092.56
2018-08-06T09:29:23.382Z,98097.92
2018-08-06T09:30:26.478Z,98095.67
2018-08-06T09:31:31.254Z,98099.98
2018-08-06T09:32:34.096Z,98087.66
2018-08-06T09:33:36.996Z,98095.01
2018-08-06T09:34:41.275Z,98091.19
2018-08-06T09:35:44.129Z,98081.73
2018-08-06T09:36:51.036Z,98081.22
2018-08-06T09:37:54.577Z,98082.23
2018-08-06T09:38:57.537Z,98094.59
2018-08-06T09:40:00.441Z,98075.95
2018-08-06T09:41:03.572Z,98079.73
2018-08-06T09:42:06.407Z,98078.30
2018-08-06T09:43:11.031Z,98079.36
2018-08-06T09:44:14.855Z,98069.95
2018-08-06T09:45:20.133Z,98076.77
2018-08-06T09:46:24.129Z,98077.09
2018-08-06T09:47:29.314Z,98067.64
2018-08-06T09:48:32.471Z,98076.36
2018-08-06T10:06:01.688Z,98047.47
2018-08-06T10:07:04.541Z,98048.89
2018-08-06T10:08:07.568Z,98047.59
2018-08-06T10:09:11.721Z,98049.57
2018-08-06T10:10:19.568Z,98037.11
2018-08-06T10:11:22.405Z,98036.66
2018-08-06T10:12:25.245Z,98039.52
2018-08-06T10:13:28.255Z,98035.92
2018-08-06T10:14:33.200Z,98041.56
2018-08-06T10:15:37.654Z,98044.19
2018-08-06T10:16:40.903Z,98040.82
2018-08-06T10:17:44.692Z,98037.73
2018-08-06T10:18:47.546Z,98039.75
2018-08-06T10:19:50.731Z,98043.95
2018-08-06T10:20:54.490Z,98036.36
2018-08-06T10:21:57.371Z,98042.30
2018-08-06T10:23:01.682Z,98036.13
2018-08-06T10:24:05.220Z,98039.68
2018-08-06T10:25:09.374Z,98040.69
2018-08-06T10:26:12.248Z,98036.94
2018-08-06T10:27:15.085Z,98026.94
2018-08-06T10:28:17.941Z,98031.47
2018-08-06T10:29:21.116Z,98028.56
2018-08-06T10:30:24.481Z,98022.11
2018-08-06T10:31:27.429Z,98020.12
2018-08-06T10:32:30.420Z,98017.97
2018-08-06T10:33:34.712Z,98024.12
2018-08-06T10:34:37.571Z,98012.80
2018-08-06T10:35:40.892Z,98014.30
2018-08-06T10:36:44.515Z,98016.22
2018-08-06T10:37:52.921Z,98008.81
2018-08-06T10:38:55.838Z,98004.30
2018-08-06T10:40:00.461Z,98006.88
2018-08-06T10:41:03.452Z,98012.46
2018-08-06T10:42:06.338Z,98011.95
2018-08-06T10:43:09.179Z,98007.14
2018-08-06T10:44:12.697Z,98010.83
2018-08-06T10:45:17.527Z,98008.14
2018-08-06T10:46:21.838Z,98004.23
2018-08-06T10:47:25.371Z,98008.42
2018-08-06T10:48:28.443Z,98002.28
2018-08-06T10:49:31.304Z,98005.87
2018-08-06T10:50:35.979Z,97996.28
2018-08-06T10:51:39.322Z,97997.98
2018-08-06T10:52:42.162Z,98000.95
2018-08-06T10:53:45.607Z,97993.61
2018-08-06T10:54:48.447Z,98001.27
2018-08-06T10:55:51.338Z,97995.45
2018-08-06T10:56:54.658Z,97999.42
2018-08-06T10:57:58.110Z,97999.38
2018-08-06T10:59:01.557Z,97999.81
2018-08-06T11:00:04.695Z,97997.44
2018-08-06T11:01:08.458Z,97994.27
2018-08-06T11:02:11.298Z,97991.39
2018-08-06T11:03:15.233Z,97993.91
2018-08-06T11:04:19.797Z,97987.29
2018-08-06T11:05:25.211Z,97979.26
2018-08-06T11:06:29.934Z,97989.65
2018-08-06T11:07:32.769Z,97983.77
2018-08-06T11:08:36.475Z,97982.80
2018-08-06T11:09:40.128Z,97974.63
2018-08-06T11:10:43.452Z,97979.44
2018-08-06T11:11:46.338Z,97979.47
2018-08-06T11:12:49.719Z,97975.71
2018-08-06T11:13:52.858Z,97971.23
2018-08-06T11:14:55.921Z,97967.88
2018-08-06T11:15:58.847Z,97972.81
2018-08-06T11:17:01.718Z,97969.97
2018-08-06T11:18:05.158Z,97968.02
2018-08-06T11:19:08.359Z,97966.09
2018-08-06T11:20:12.619Z,97974.78
2018-08-06T11:21:15.458Z,97958.63
2018-08-06T11:22:18.340Z,97959.56
2018-08-06T11:23:23.350Z,97956.81
2018-08-06T11:24:27.298Z,97960.95
2018-08-06T11:25:33.400Z,97966.00
2018-08-06T11:26:36.320Z,97948.09
2018-08-06T11:27:40.738Z,97959.89
2018-08-06T11:28:44.628Z,97956.73
2018-08-06T11:29:49.398Z,97962.25
2018-08-06T11:30:52.387Z,97961.70
2018-08-06T11:31:56.215Z,97958.10
2018-08-06T11:33:00.704Z,97951.94
2018-08-06T11:34:04.566Z,97956.11
2018-08-06T11:35:08.296Z,97961.87
2018-08-06T11:36:11.156Z,97957.45
2018-08-06T11:37:14.123Z,97950.09
2018-08-06T11:38:17.277Z,97951.89
2018-08-06T11:39:20.139Z,97952.80
2018-08-06T11:40:23.275Z,97950.84
2018-08-06T11:41:26.090Z,97949.08
2018-08-06T11:42:29.618Z,97942.52
2018-08-06T11:43:33.339Z,97940.69
2018-08-06T11:44:37.290Z,97940.48
2018-08-06T11:45:40.316Z,97953.06
2018-08-06T11:46:43.177Z,97943.05
2018-08-06T11:47:47.566Z,97946.61
2018-08-06T11:48:53.612Z,97957.83
2018-08-06T11:49:58.448Z,97952.06
2018-08-06T11:51:01.592Z,97947.95
2018-08-06T11:52:05.334Z,97936.94
2018-08-06T11:53:08.491Z,97932.98
2018-08-06T11:54:12.335Z,97937.95
2018-08-06T11:55:15.821Z,97935.08
2018-08-06T11:56:18.740Z,97929.13
2018-08-06T11:57:21.900Z,97930.86
2018-08-06T11:58:24.722Z,97931.05
2018-08-06T11:59:28.529Z,97932.84
2018-08-06T12:00:32.624Z,97932.52
2018-08-06T12:01:39.389Z,97930.34
2018-08-06T12:02:43.324Z,97924.27
2018-08-06T12:03:46.460Z,97914.34
2018-08-06T12:04:49.461Z,97917.00
2018-08-06T12:05:53.266Z,97913.90
2018-08-06T12:06:57.679Z,97917.43
2018-08-06T12:08:00.928Z,97910.74
2018-08-06T12:09:07.239Z,97913.66
2018-08-06T12:10:10.547Z,97925.54
2018-08-06T12:11:14.315Z,97914.82
2018-08-06T12:12:17.232Z,97920.75
2018-08-06T12:13:20.123Z,97919.23
2018-08-06T12:14:23.076Z,97914.13
2018-08-06T12:15:26.589Z,97906.61
2018-08-06T12:16:29.719Z,97904.89
2018-08-06T12:17:33.545Z,97900.36
2018-08-06T12:18:36.718Z,97902.28
2018-08-06T12:19:39.585Z,97898.69
2018-08-06T12:20:43.946Z,97897.56
2018-08-06T12:21:47.789Z,97892.41
2018-08-06T12:22:52.314Z,97891.65
2018-08-06T12:23:56.235Z,97896.53
2018-08-06T12:24:59.918Z,97892.14
2018-08-06T12:26:03.518Z,97888.55
2018-08-06T12:27:06.296Z,97892.45
2018-08-06T12:28:09.702Z,97895.59
2018-08-06T12:29:12.791Z,97896.05
2018-08-06T12:30:16.757Z,97910.69
2018-08-06T12:31:19.848Z,97894.58
2018-08-06T12:32:24.257Z,97918.67
2018-08-06T12:33:27.789Z,97905.55
2018-08-06T12:34:30.670Z,97907.58
2018-08-06T12:35:33.755Z,97909.30
2018-08-06T12:36:37.741Z,97896.38
2018-08-06T12:37:40.591Z,97906.44
2018-08-06T12:38:43.450Z,97903.22
2018-08-06T12:39:46.650Z,97895.62
2018-08-06T12:40:49.602Z,97892.37
2018-08-06T12:41:52.793Z,97885.98
2018-08-06T12:42:55.664Z,97880.81
2018-08-06T12:43:58.625Z,97881.61
2018-08-06T12:45:01.504Z,97896.05
2018-08-06T12:46:04.718Z,97889.44
2018-08-06T12:47:07.665Z,97880.53
2018-08-06T12:48:10.538Z,97877.89
2018-08-06T12:49:13.396Z,97875.25
2018-08-06T12:50:17.268Z,97878.34
2018-08-06T12:51:20.111Z,97878.95
2018-08-06T12:52:23.477Z,97883.22
2018-08-06T12:53:27.337Z,97876.92
2018-08-06T12:54:31.290Z,97876.31
2018-08-06T12:55:35.169Z,97876.58
2018-08-06T12:56:40.610Z,97867.25
2018-08-06T12:57:44.108Z,97873.63
2018-08-06T12:58:47.307Z,97871.45